Time;durP1;ratioP1;P1;durP2;ratioP2;P2;SDS_P1;SDS_P2;PMS_P1;PMS_P2;Temp;Humidity;BMP_temperature;BMP_pressure;BME280_temperature;BME280_humidity;BME280_pressure;Samples;Min_cycle;Max_cycle;Signal;HPM_P1;HPM_P2
2022/12/09 00:01:28;;;;;;;;;27.50;23.50;;;;;20.33;57.45;99832.31;5040930;28;45391;-58
2022/12/09 00:03:54;;;;;;;;;29.50;25.75;;;;;20.33;57.34;99826.16;5040391;28;57610;-58
2022/12/09 00:06:24;;;;;;;;;21.75;20.50;;;;;20.33;57.55;99827.00;5040753;28;45518;-56
2022/12/09 00:08:49;;;;;;;;;30.50;23.25;;;;;20.32;57.36;99829.72;5038262;28;45268;-57
2022/12/09 00:11:15;;;;;;;;;31.25;24.00;;;;;20.31;57.83;99823.53;5060255;28;60174;-56
2022/12/09 00:13:40;;;;;;;;;27.00;23.75;;;;;20.30;57.72;99811.22;5060973;28;46106;-57
2022/12/09 00:16:07;;;;;;;;;26.00;22.25;;;;;20.32;57.31;99814.66;5060245;28;60503;-56
2022/12/09 00:18:33;;;;;;;;;27.25;22.75;;;;;20.32;57.58;99813.81;5042910;28;45237;-57
2022/12/09 00:20:58;;;;;;;;;30.25;27.50;;;;;20.29;57.64;99812.16;5042876;28;45268;-55
2022/12/09 00:23:23;;;;;;;;;25.25;24.00;;;;;20.29;57.62;99812.16;5060487;28;46021;-56
2022/12/09 00:25:49;;;;;;;;;25.00;23.00;;;;;20.29;57.83;99814.81;5042043;28;62351;-56
2022/12/09 00:28:14;;;;;;;;;24.25;23.25;;;;;20.29;57.79;99813.97;5042618;28;53879;-55
2022/12/09 00:30:40;;;;;;;;;24.00;21.50;;;;;20.29;57.66;99811.31;5060451;28;46163;-56
2022/12/09 00:33:05;;;;;;;;;26.00;21.50;;;;;20.27;57.77;99814.03;5042594;28;45486;-55
2022/12/09 00:35:30;;;;;;;;;24.75;22.25;;;;;20.28;57.53;99814.88;5042455;28;45294;-55
2022/12/09 00:37:56;;;;;;;;;26.00;22.00;;;;;20.26;58.25;99804.38;5042131;28;48337;-55
2022/12/09 00:40:21;;;;;;;;;28.00;24.75;;;;;20.25;57.81;99807.94;5042458;28;45602;-55
2022/12/09 00:42:47;;;;;;;;;29.50;21.50;;;;;20.25;57.94;99800.00;5032014;28;56131;-56
2022/12/09 00:45:12;;;;;;;;;24.00;21.25;;;;;20.25;57.74;99804.44;5037310;28;55087;-55
2022/12/09 00:47:37;;;;;;;;;21.50;18.75;;;;;20.25;57.47;99804.44;5052323;28;45545;-55
2022/12/09 00:50:04;;;;;;;;;29.50;25.00;;;;;20.25;57.96;99791.19;5054249;28;57690;-54
2022/12/09 00:52:30;;;;;;;;;23.50;21.00;;;;;20.24;57.67;99793.00;5059974;28;46110;-54
2022/12/09 00:54:55;;;;;;;;;28.00;21.75;;;;;20.24;57.95;99789.44;5060263;28;45384;-54
2022/12/09 00:57:21;;;;;;;;;27.00;23.25;;;;;20.24;57.83;99782.38;5042397;28;45232;-54
2022/12/09 00:59:46;;;;;;;;;22.25;19.75;;;;;20.24;57.99;99784.16;5059406;28;63919;-54
2022/12/09 01:02:11;;;;;;;;;25.50;20.75;;;;;20.23;57.92;99779.78;5059828;28;57301;-54
2022/12/09 01:04:37;;;;;;;;;23.75;20.50;;;;;20.24;57.85;99777.09;5059929;28;45317;-53
2022/12/09 01:07:02;;;;;;;;;25.25;20.75;;;;;20.24;57.62;99782.38;5059592;28;61942;-54
2022/12/09 01:09:27;;;;;;;;;25.00;18.50;;;;;20.24;57.55;99773.53;5028312;28;45535;-52
2022/12/09 01:11:53;;;;;;;;;28.50;23.00;;;;;20.23;57.67;99778.00;5041943;28;47300;-50
2022/12/09 01:14:18;;;;;;;;;22.75;19.25;;;;;20.24;57.96;99784.16;5059291;28;62096;-52
2022/12/09 01:16:44;;;;;;;;;22.00;20.50;;;;;20.23;57.45;99780.63;5060188;28;45750;-53
2022/12/09 01:19:10;;;;;;;;;26.00;22.25;;;;;20.22;57.92;99770.97;5059347;28;57895;-53
2022/12/09 01:21:35;;;;;;;;;22.75;20.00;;;;;20.22;57.59;99772.75;5001423;28;47162;-52
2022/12/09 01:24:00;;;;;;;;;21.50;18.75;;;;;20.22;57.62;99770.97;5039473;28;45261;-53
2022/12/09 01:26:26;;;;;;;;;28.00;22.00;;;;;20.21;57.53;99774.56;5039996;28;45372;-54
2022/12/09 01:28:53;;;;;;;;;25.50;22.00;;;;;20.21;57.43;99774.56;5021364;28;58144;-52
2022/12/09 01:31:20;;;;;;;;;20.50;19.75;;;;;20.21;57.59;99779.84;5039640;28;46373;-52
2022/12/09 01:33:46;;;;;;;;;19.25;18.50;;;;;20.20;57.41;99775.50;5018420;28;45169;-53
2022/12/09 01:36:20;;;;;;;;;23.50;22.50;;;;;20.21;57.60;99779.00;5009161;28;45243;-53
2022/12/09 01:38:46;;;;;;;;;22.50;19.50;;;;;20.21;57.35;99777.22;5027998;28;45807;-53
2022/12/09 01:41:12;;;;;;;;;22.75;21.50;;;;;20.21;58.04;99781.66;5041291;28;60506;-53
2022/12/09 01:43:38;;;;;;;;;23.25;19.25;;;;;20.18;57.52;99772.06;5041785;28;45232;-53
2022/12/09 01:46:03;;;;;;;;;22.00;19.75;;;;;20.19;57.50;99772.91;5059960;28;45174;-52
2022/12/09 01:48:31;;;;;;;;;21.25;16.25;;;;;20.19;57.54;99776.44;5011465;28;45487;-53
2022/12/09 01:51:01;;;;;;;;;25.25;22.75;;;;;20.19;57.77;99772.91;5025016;28;45256;-52
2022/12/09 01:53:29;;;;;;;;;25.00;18.50;;;;;20.19;57.50;99773.78;5025859;28;45345;-49
2022/12/09 01:55:57;;;;;;;;;18.75;17.50;;;;;20.20;57.76;99777.28;5045637;28;45396;-54
2022/12/09 01:58:22;;;;;;;;;21.75;20.25;;;;;20.20;57.65;99782.59;5031516;28;45503;-52
2022/12/09 02:00:48;;;;;;;;;26.25;20.00;;;;;20.20;57.45;99782.59;5044241;28;66284;-53
2022/12/09 02:03:13;;;;;;;;;21.50;19.75;;;;;20.19;57.43;99780.88;5062772;28;45284;-53
2022/12/09 02:05:38;;;;;;;;;21.50;17.75;;;;;20.18;57.91;99774.72;5027974;28;58583;-52
2022/12/09 02:08:15;;;;;;;;;19.00;15.00;;;;;20.19;57.69;99772.91;5059080;28;66450;-54
2022/12/09 02:11:03;;;;;;;;;25.75;23.00;;;;;20.18;57.60;99772.06;5042721;28;46130;-53
2022/12/09 02:13:41;;;;;;;;;24.25;18.50;;;;;20.18;57.52;99777.34;5012280;28;45444;-53
2022/12/09 02:16:08;;;;;;;;;23.50;20.50;;;;;20.18;57.71;99772.06;5040492;28;45443;-53
2022/12/09 02:19:06;;;;;;;;;24.75;23.00;;;;;20.17;57.92;99770.34;5028243;28;45680;-52
2022/12/09 02:21:36;;;;;;;;;19.50;17.25;;;;;20.17;57.54;99770.34;5044764;28;45300;-54
2022/12/09 02:24:13;;;;;;;;;21.50;19.75;;;;;20.17;57.52;99764.19;5025117;28;45365;-51
2022/12/09 02:26:40;;;;;;;;;21.00;18.75;;;;;20.16;57.83;99763.34;5020573;28;45364;-49
2022/12/09 02:29:35;;;;;;;;;21.25;17.50;;;;;20.16;57.60;99758.03;5023575;28;45487;-53
2022/12/09 02:32:10;;;;;;;;;29.50;19.25;;;;;20.17;57.78;99754.44;5062510;28;46221;-51
2022/12/09 02:34:38;;;;;;;;;25.50;20.00;;;;;20.17;58.31;99758.88;5062368;28;45176;-50
2022/12/09 02:37:26;;;;;;;;;22.75;17.25;;;;;20.16;57.96;99746.56;5062475;28;45219;-52
2022/12/09 02:39:59;;;;;;;;;19.25;18.00;;;;;20.16;57.79;99755.38;5062730;28;45435;-52
2022/12/09 02:42:26;;;;;;;;;18.00;15.00;;;;;20.16;57.59;99752.72;5028685;28;46053;-52
2022/12/09 02:44:51;;;;;;;;;17.00;16.50;;;;;20.16;58.14;99749.22;5027958;28;45676;-53
2022/12/09 02:47:19;;;;;;;;;19.75;18.00;;;;;20.14;57.85;99746.63;5024389;28;45313;-53
2022/12/09 02:49:45;;;;;;;;;24.00;20.50;;;;;20.15;57.92;99747.47;5019993;28;45518;-52
2022/12/09 02:52:11;;;;;;;;;21.00;16.75;;;;;20.15;57.65;99736.88;5044006;28;46137;-47
2022/12/09 02:54:36;;;;;;;;;21.25;19.25;;;;;20.15;58.17;99736.88;5026581;28;65324;-53
2022/12/09 02:57:17;;;;;;;;;19.25;15.75;;;;;20.15;57.69;99740.38;5024047;28;45224;-49
2022/12/09 02:59:43;;;;;;;;;22.75;18.50;;;;;20.16;58.06;99742.13;5038813;28;45317;-52
2022/12/09 03:02:19;;;;;;;;;20.75;18.00;;;;;20.15;57.93;99743.03;5061572;28;63155;-51
2022/12/09 03:04:46;;;;;;;;;20.75;18.25;;;;;20.14;58.15;99743.97;5043061;28;45301;-51
2022/12/09 03:07:39;;;;;;;;;20.25;18.00;;;;;20.13;57.96;99747.56;5027715;28;45301;-51
2022/12/09 03:10:25;;;;;;;;;18.75;15.50;;;;;20.13;57.93;99752.84;5024529;28;45323;-50
2022/12/09 03:13:14;;;;;;;;;22.50;18.25;;;;;20.13;57.81;99752.00;5031017;28;46484;-50
2022/12/09 03:15:42;;;;;;;;;18.75;16.00;;;;;20.13;57.87;99752.84;5026465;28;45372;-47
2022/12/09 03:18:09;;;;;;;;;23.25;19.00;;;;;20.13;57.70;99742.25;5037565;28;45502;-47
2022/12/09 03:20:36;;;;;;;;;21.75;15.75;;;;;20.15;58.19;99735.09;5031975;28;45241;-49
2022/12/09 03:23:02;;;;;;;;;22.25;17.25;;;;;20.15;58.34;99737.75;5022216;28;46338;-52
2022/12/09 03:25:30;;;;;;;;;23.50;21.75;;;;;20.15;58.07;99740.38;5032015;28;45222;-52
2022/12/09 03:28:04;;;;;;;;;21.00;16.50;;;;;20.15;57.33;99737.75;5041655;28;45532;-50
2022/12/09 03:30:30;;;;;;;;;22.25;20.50;;;;;20.14;57.89;99738.69;5024569;28;45277;-49
2022/12/09 03:32:56;;;;;;;;;27.25;19.75;;;;;20.14;57.51;99728.06;5007201;28;46078;-48
2022/12/09 03:35:23;;;;;;;;;19.75;17.00;;;;;20.15;58.14;99740.38;5040605;28;61813;-48
2022/12/09 03:37:49;;;;;;;;;20.00;16.50;;;;;20.15;57.88;99736.88;5040075;28;45283;-51
2022/12/09 03:40:16;;;;;;;;;20.00;15.75;;;;;20.13;57.71;99734.31;5013909;28;45270;-52
2022/12/09 03:42:46;;;;;;;;;21.75;18.25;;;;;20.14;58.04;99737.81;5007248;28;46141;-51
2022/12/09 03:45:12;;;;;;;;;19.50;18.00;;;;;20.13;58.26;99725.50;5007295;28;45348;-52
2022/12/09 03:47:37;;;;;;;;;23.25;17.25;;;;;20.12;58.17;99729.94;5015337;28;45336;-51
2022/12/09 03:50:04;;;;;;;;;17.75;16.00;;;;;20.12;58.11;99724.66;5041531;28;45584;-50
2022/12/09 03:52:32;;;;;;;;;21.50;16.25;;;;;20.14;58.24;99727.22;5022962;28;45336;-52
2022/12/09 03:55:09;;;;;;;;;19.00;17.25;;;;;20.14;58.27;99727.22;5041007;28;45174;-50
2022/12/09 03:57:35;;;;;;;;;16.25;13.50;;;;;20.14;57.95;99724.56;5024551;28;45440;-48
2022/12/09 04:00:01;;;;;;;;;16.75;15.00;;;;;20.11;58.13;99719.44;5041122;28;45451;-47
2022/12/09 04:02:26;;;;;;;;;17.00;16.00;;;;;20.13;58.02;99722.84;4996902;28;46066;-48
2022/12/09 04:04:51;;;;;;;;;16.75;14.25;;;;;20.14;57.86;99721.91;5056974;28;57227;-48
2022/12/09 04:07:17;;;;;;;;;23.25;17.50;;;;;20.12;58.08;99719.34;5060355;28;58820;-46
2022/12/09 04:09:42;;;;;;;;;23.00;17.00;;;;;20.11;58.19;99714.13;5029531;28;45438;-48
2022/12/09 04:12:08;;;;;;;;;16.00;15.50;;;;;20.11;58.03;99708.81;5060392;28;64560;-46
2022/12/09 04:14:33;;;;;;;;;20.00;15.50;;;;;20.12;58.05;99711.41;5042819;28;45277;-47
2022/12/09 04:16:59;;;;;;;;;21.50;17.75;;;;;20.12;58.02;99707.91;5060238;28;60958;-47
2022/12/09 04:19:24;;;;;;;;;15.50;14.25;;;;;20.12;58.36;99700.81;5042837;28;45885;-49
2022/12/09 04:21:49;;;;;;;;;19.00;16.50;;;;;20.13;58.01;99704.31;5060352;28;60532;-47
2022/12/09 04:24:15;;;;;;;;;19.50;15.00;;;;;20.14;58.15;99698.09;5042459;28;46185;-49
2022/12/09 04:26:40;;;;;;;;;15.75;15.00;;;;;20.14;58.32;99704.22;5042155;28;63415;-48
2022/12/09 04:29:05;;;;;;;;;19.00;15.00;;;;;20.15;58.30;99702.44;5060060;28;62127;-51
2022/12/09 04:31:31;;;;;;;;;20.75;16.50;;;;;20.16;57.96;99704.19;5042137;28;63815;-49
2022/12/09 04:33:56;;;;;;;;;16.75;14.75;;;;;20.16;58.16;99696.25;5041656;28;61958;-46
2022/12/09 04:36:22;;;;;;;;;17.25;16.00;;;;;20.16;58.09;99685.66;5060845;28;45204;-49
2022/12/09 04:38:47;;;;;;;;;20.25;13.75;;;;;20.16;58.46;99691.81;5042533;28;45321;-47
2022/12/09 04:41:13;;;;;;;;;16.25;13.00;;;;;20.17;57.86;99697.97;5042609;28;46670;-46
2022/12/09 04:43:38;;;;;;;;;16.50;14.00;;;;;20.17;58.15;99698.81;5042381;28;45292;-47
2022/12/09 04:46:05;;;;;;;;;16.75;14.75;;;;;20.17;58.34;99697.97;5042737;28;45354;-47
2022/12/09 04:48:31;;;;;;;;;14.25;13.50;;;;;20.17;57.91;99705.91;5046624;28;45344;-47
2022/12/09 04:50:56;;;;;;;;;20.25;15.75;;;;;20.16;58.01;99702.41;5060399;28;45471;-46
2022/12/09 04:53:22;;;;;;;;;13.25;13.00;;;;;20.17;58.04;99701.47;5059938;28;45369;-47
2022/12/09 04:55:48;;;;;;;;;19.25;15.25;;;;;20.18;58.26;99700.53;5060581;28;45351;-46
2022/12/09 04:58:13;;;;;;;;;15.50;15.00;;;;;20.18;58.65;99697.88;5044054;28;63977;-49
2022/12/09 05:00:38;;;;;;;;;16.50;15.25;;;;;20.18;58.27;99699.66;5039781;28;62907;-46
2022/12/09 05:03:04;;;;;;;;;15.75;15.50;;;;;20.19;58.34;99702.25;5021665;28;55366;-47
2022/12/09 05:05:29;;;;;;;;;17.75;15.00;;;;;20.20;58.02;99711.06;5040320;28;45305;-47
2022/12/09 05:07:55;;;;;;;;;14.50;14.00;;;;;20.20;58.35;99706.59;5045428;28;62297;-46
2022/12/09 05:10:20;;;;;;;;;15.75;14.75;;;;;20.21;58.73;99704.81;5039982;28;45357;-47
2022/12/09 05:12:45;;;;;;;;;15.75;14.25;;;;;20.21;58.49;99703.03;5040032;28;45317;-49
2022/12/09 05:15:11;;;;;;;;;20.25;16.50;;;;;20.21;58.73;99697.72;5040047;28;45567;-48
2022/12/09 05:17:36;;;;;;;;;18.00;13.75;;;;;20.22;58.65;99701.22;5039959;28;45284;-49
2022/12/09 05:20:02;;;;;;;;;21.50;16.25;;;;;20.23;58.75;99708.25;5030209;28;47621;-51
2022/12/09 05:22:28;;;;;;;;;13.00;12.50;;;;;20.22;58.68;99707.38;5039964;28;45352;-48
2022/12/09 05:24:53;;;;;;;;;16.00;13.00;;;;;20.23;58.71;99700.28;5029885;28;55057;-47
2022/12/09 05:27:19;;;;;;;;;13.00;12.50;;;;;20.23;59.10;99702.94;5023754;28;45530;-46
2022/12/09 05:29:45;;;;;;;;;17.00;13.00;;;;;20.23;59.10;99711.75;5042389;28;61548;-47
2022/12/09 05:32:10;;;;;;;;;13.00;11.50;;;;;20.24;59.21;99702.91;5043312;28;45360;-46
2022/12/09 05:34:35;;;;;;;;;14.50;14.00;;;;;20.23;59.11;99714.41;5025055;28;55095;-47
2022/12/09 05:37:01;;;;;;;;;21.00;14.50;;;;;20.25;58.86;99709.06;5043060;28;45265;-50
2022/12/09 05:39:26;;;;;;;;;16.75;13.50;;;;;20.25;59.57;99706.41;5042959;28;53208;-50
2022/12/09 05:41:52;;;;;;;;;13.00;12.75;;;;;20.25;58.92;99712.56;5043064;28;45355;-47
2022/12/09 05:44:17;;;;;;;;;17.25;14.50;;;;;20.27;58.87;99705.41;5032787;28;59127;-46
2022/12/09 05:46:43;;;;;;;;;15.00;12.25;;;;;20.28;59.03;99712.41;5048140;28;45536;-50
2022/12/09 05:49:08;;;;;;;;;14.25;11.00;;;;;20.27;59.13;99710.69;5042538;28;64896;-48
2022/12/09 05:51:33;;;;;;;;;13.00;12.00;;;;;20.27;58.98;99705.41;5025118;28;45321;-46
2022/12/09 05:54:00;;;;;;;;;13.75;13.75;;;;;20.28;58.82;99707.09;5042860;28;45246;-47
2022/12/09 05:56:25;;;;;;;;;15.00;12.00;;;;;20.29;58.87;99702.66;5031299;28;45451;-48
2022/12/09 05:58:51;;;;;;;;;19.25;16.25;;;;;20.30;59.01;99707.03;5042254;28;62498;-46
2022/12/09 06:01:16;;;;;;;;;15.00;10.50;;;;;20.30;59.19;99710.53;5021824;28;45647;-49
2022/12/09 06:03:41;;;;;;;;;15.75;12.50;;;;;20.30;59.09;99712.34;5031972;28;49011;-50
2022/12/09 06:06:08;;;;;;;;;18.25;14.50;;;;;20.30;59.00;99710.53;5055504;28;61659;-48
2022/12/09 06:08:34;;;;;;;;;11.75;11.75;;;;;20.30;59.24;99718.50;5054824;28;45629;-51
2022/12/09 06:11:00;;;;;;;;;15.25;13.25;;;;;20.32;59.28;99729.88;5042831;28;45505;-48
2022/12/09 06:13:25;;;;;;;;;10.50;9.75;;;;;20.30;59.16;99723.78;5024603;28;50772;-49
2022/12/09 06:15:51;;;;;;;;;16.75;14.00;;;;;20.32;58.92;99729.88;5024774;28;45407;-49
2022/12/09 06:18:16;;;;;;;;;13.50;11.50;;;;;20.33;59.06;99730.75;5046276;28;45491;-52
2022/12/09 06:20:42;;;;;;;;;17.00;12.25;;;;;20.35;58.78;99733.31;5028153;28;45362;-48
2022/12/09 06:23:07;;;;;;;;;16.50;14.00;;;;;20.36;58.88;99732.41;5042153;28;45635;-49
2022/12/09 06:25:33;;;;;;;;;13.00;10.75;;;;;20.37;58.79;99734.09;5044488;28;45384;-49
2022/12/09 06:27:58;;;;;;;;;14.25;11.75;;;;;20.37;59.19;99740.25;5062629;28;45358;-50
2022/12/09 06:30:24;;;;;;;;;13.75;12.25;;;;;20.37;58.23;99736.75;5051096;28;49697;-50
2022/12/09 06:32:49;;;;;;;;;12.75;11.50;;;;;20.38;58.75;99736.69;5042606;28;45973;-49
2022/12/09 06:35:14;;;;;;;;;13.25;10.50;;;;;20.40;59.03;99744.56;5024312;28;45281;-50
2022/12/09 06:37:40;;;;;;;;;14.00;10.25;;;;;20.41;58.84;99743.63;5027439;28;45335;-51
2022/12/09 06:40:06;;;;;;;;;12.75;10.75;;;;;20.39;58.75;99740.19;5044404;28;53050;-48
2022/12/09 06:42:31;;;;;;;;;15.00;12.25;;;;;20.40;58.45;99741.91;5024350;28;45292;-52
2022/12/09 06:44:56;;;;;;;;;12.00;8.75;;;;;20.40;58.47;99737.47;5041887;28;52701;-51
2022/12/09 06:47:22;;;;;;;;;14.75;11.00;;;;;20.40;58.37;99726.84;5026950;28;59019;-49
2022/12/09 06:49:47;;;;;;;;;15.25;11.75;;;;;20.41;58.70;99735.66;5061517;28;65878;-51
2022/12/09 06:52:13;;;;;;;;;14.50;12.00;;;;;20.42;58.52;99729.47;5061239;28;60036;-50
2022/12/09 06:54:38;;;;;;;;;10.75;10.25;;;;;20.42;58.38;99729.47;5061346;28;59902;-49
2022/12/09 06:57:03;;;;;;;;;10.00;9.50;;;;;20.42;58.68;99734.75;5037943;28;45335;-52
2022/12/09 06:59:29;;;;;;;;;14.00;12.00;;;;;20.42;58.09;99737.41;5027239;28;50830;-52
2022/12/09 07:01:54;;;;;;;;;11.75;11.75;;;;;20.42;58.11;99729.47;5061946;28;46145;-48
2022/12/09 07:04:21;;;;;;;;;12.25;10.00;;;;;20.43;57.96;99745.31;5023989;28;45603;-47
2022/12/09 07:06:46;;;;;;;;;14.00;10.00;;;;;20.44;58.09;99743.53;5058752;28;46037;-47
2022/12/09 07:09:14;;;;;;;;;11.50;10.25;;;;;20.45;58.42;99742.59;5024892;28;61145;-51
2022/12/09 07:11:41;;;;;;;;;12.50;11.25;;;;;20.46;57.96;99750.47;5061054;28;45424;-49
2022/12/09 07:14:06;;;;;;;;;11.50;9.00;;;;;20.49;57.96;99738.84;5031663;28;45487;-50
2022/12/09 07:16:32;;;;;;;;;12.25;8.50;;;;;20.49;58.27;99742.34;5042747;28;45405;-50
2022/12/09 07:18:57;;;;;;;;;13.25;12.00;;;;;20.50;58.29;99751.16;5027139;28;45242;-51
2022/12/09 07:21:23;;;;;;;;;11.00;10.50;;;;;20.50;58.01;99753.81;5043413;28;56404;-46
2022/12/09 07:23:48;;;;;;;;;14.00;10.25;;;;;20.51;58.01;99760.88;5023458;28;48421;-48
2022/12/09 07:26:14;;;;;;;;;13.25;9.00;;;;;20.51;57.65;99766.16;5060002;28;45598;-49
2022/12/09 07:28:41;;;;;;;;;14.00;9.00;;;;;20.53;57.98;99777.56;5061850;28;45236;-51
2022/12/09 07:31:15;;;;;;;;;13.00;10.00;;;;;20.52;57.80;99767.88;5061757;28;45389;-50
2022/12/09 07:33:40;;;;;;;;;13.75;10.25;;;;;20.54;57.92;99768.66;5028101;28;45290;-45
2022/12/09 07:36:06;;;;;;;;;12.75;10.75;;;;;20.54;57.91;99763.34;5061472;28;48617;-48
2022/12/09 07:38:31;;;;;;;;;12.75;10.25;;;;;20.54;57.76;99766.00;5046957;28;45324;-48
2022/12/09 07:41:03;;;;;;;;;14.50;14.00;;;;;20.53;54.35;99764.28;5020776;28;52884;-46
2022/12/09 07:43:28;;;;;;;;;15.50;15.00;;;;;20.08;48.96;99761.97;5034537;28;45206;-47
2022/12/09 07:45:54;;;;;;;;;21.50;20.25;;;;;19.18;46.94;99767.56;5047931;28;58725;-46
2022/12/09 07:48:19;;;;;;;;;18.25;16.50;;;;;18.17;43.88;99772.47;5046810;28;45861;-48
2022/12/09 07:50:45;;;;;;;;;21.25;16.50;;;;;17.34;48.34;99772.72;5060684;28;45375;-49
2022/12/09 07:53:11;;;;;;;;;16.75;15.50;;;;;17.25;51.40;99780.94;5021294;28;45551;-46
2022/12/09 07:55:36;;;;;;;;;11.50;9.25;;;;;17.38;52.42;99776.13;5030073;28;47796;-52
2022/12/09 07:58:02;;;;;;;;;19.00;16.75;;;;;17.59;52.98;99777.16;5052934;28;48166;-51
2022/12/09 08:00:27;;;;;;;;;12.75;11.00;;;;;17.80;53.13;99777.28;5043843;28;45313;-48
2022/12/09 08:02:53;;;;;;;;;12.75;12.75;;;;;18.02;53.03;99774.75;5047321;28;63375;-48
2022/12/09 08:05:19;;;;;;;;;17.00;15.00;;;;;18.21;53.75;99777.56;5036824;28;46888;-47
2022/12/09 08:07:44;;;;;;;;;13.50;11.50;;;;;18.40;53.71;99777.72;5055638;28;52818;-47
2022/12/09 08:10:10;;;;;;;;;14.00;12.00;;;;;18.57;53.73;99780.56;5040619;28;56262;-52
2022/12/09 08:12:36;;;;;;;;;14.50;13.75;;;;;18.72;53.89;99771.22;5035317;28;45265;-46
2022/12/09 08:15:02;;;;;;;;;17.75;10.25;;;;;18.88;53.88;99782.06;5013006;28;45477;-50
2022/12/09 08:17:29;;;;;;;;;14.75;11.75;;;;;19.00;53.99;99775.41;5053120;28;44882;-45
2022/12/09 08:19:54;;;;;;;;;10.75;10.00;;;;;19.11;53.75;99770.50;5023710;28;45297;-47
2022/12/09 08:22:20;;;;;;;;;10.75;10.00;;;;;19.22;53.74;99770.09;5048923;28;45571;-45
2022/12/09 08:24:45;;;;;;;;;16.00;14.25;;;;;19.22;49.68;99775.38;5030019;28;47234;-48
2022/12/09 08:27:11;;;;;;;;;15.00;15.00;;;;;19.00;49.59;99781.53;5039391;28;60986;-48
2022/12/09 08:29:36;;;;;;;;;18.25;16.25;;;;;18.76;48.56;99778.09;5039186;28;55311;-51
2022/12/09 08:32:02;;;;;;;;;16.50;15.00;;;;;18.44;48.34;99778.47;5025527;28;55917;-49
2022/12/09 08:34:27;;;;;;;;;18.75;15.50;;;;;18.12;48.10;99782.31;5040118;28;45967;-48
2022/12/09 08:36:52;;;;;;;;;19.25;13.50;;;;;17.89;47.29;99789.28;5042652;28;45281;-46
2022/12/09 08:39:18;;;;;;;;;21.75;13.50;;;;;17.66;48.03;99792.72;5047351;28;45783;-50
2022/12/09 08:41:43;;;;;;;;;19.25;14.75;;;;;17.51;47.92;99782.69;5054294;28;45491;-50
2022/12/09 08:44:14;;;;;;;;;18.00;17.00;;;;;17.36;47.71;99791.13;5038628;28;45487;-47
2022/12/09 08:46:41;;;;;;;;;18.50;16.50;;;;;17.17;47.57;99793.50;5060107;28;45396;-49
2022/12/09 08:49:07;;;;;;;;;24.00;20.75;;;;;17.08;48.17;99788.53;5043515;28;45497;-50
2022/12/09 08:51:33;;;;;;;;;21.00;16.50;;;;;17.01;47.82;99793.16;5009633;28;45582;-49
2022/12/09 08:53:59;;;;;;;;;23.00;20.75;;;;;16.95;47.93;99788.97;5047144;28;51018;-52
2022/12/09 08:56:25;;;;;;;;;19.50;16.75;;;;;16.86;48.17;99789.25;5010300;28;45447;-48
2022/12/09 08:58:50;;;;;;;;;19.00;16.00;;;;;16.85;47.89;99792.81;5032538;28;45364;-52
2022/12/09 09:01:17;;;;;;;;;25.25;21.25;;;;;16.82;47.66;99792.00;5022072;28;45998;-48
2022/12/09 09:03:42;;;;;;;;;23.75;19.00;;;;;16.75;47.50;99803.66;5038705;28;46006;-50
2022/12/09 09:06:08;;;;;;;;;21.50;19.25;;;;;16.63;46.92;99796.97;5027276;28;45285;-52
2022/12/09 09:08:33;;;;;;;;;17.50;15.25;;;;;16.55;49.83;99791.06;5022303;28;45316;-49
2022/12/09 09:10:58;;;;;;;;;15.25;14.50;;;;;16.70;52.46;99792.41;5021351;28;65062;-51
2022/12/09 09:13:24;;;;;;;;;18.75;15.50;;;;;16.92;52.96;99794.31;5052468;28;45364;-53
2022/12/09 09:15:50;;;;;;;;;15.25;14.00;;;;;17.19;52.88;99797.81;5038774;28;45628;-58
2022/12/09 09:18:15;;;;;;;;;15.75;12.25;;;;;17.45;53.99;99799.59;5047748;28;45323;-51
2022/12/09 09:20:46;;;;;;;;;12.00;11.00;;;;;17.70;54.46;99793.50;5043523;28;45425;-48
2022/12/09 09:23:12;;;;;;;;;13.25;11.00;;;;;17.91;54.84;99800.69;5042414;28;46185;-49
2022/12/09 09:25:41;;;;;;;;;15.50;13.75;;;;;18.10;53.92;99800.88;5033107;28;46152;-48
2022/12/09 09:28:07;;;;;;;;;18.00;14.50;;;;;18.26;54.38;99794.09;5053169;28;45529;-51
2022/12/09 09:30:33;;;;;;;;;18.75;13.75;;;;;18.41;55.00;99795.28;5027618;28;45408;-51
2022/12/09 09:32:58;;;;;;;;;15.50;14.00;;;;;18.53;54.66;99797.47;5043555;28;46185;-53
2022/12/09 09:35:24;;;;;;;;;15.75;13.75;;;;;18.64;55.68;99795.28;5050530;28;45348;-51
2022/12/09 09:37:50;;;;;;;;;14.75;13.25;;;;;18.72;55.04;99794.16;5021569;28;45257;-50
2022/12/09 09:40:16;;;;;;;;;14.75;12.50;;;;;18.79;55.03;99793.00;5024892;28;45237;-51
2022/12/09 09:42:44;;;;;;;;;15.75;13.00;;;;;18.89;54.91;99799.63;5017630;28;47954;-49
2022/12/09 09:45:12;;;;;;;;;14.25;11.75;;;;;18.97;54.43;99794.91;5024206;28;45379;-51
2022/12/09 09:47:43;;;;;;;;;15.50;13.00;;;;;19.06;55.31;99798.94;5007408;28;45447;-50
2022/12/09 09:50:36;;;;;;;;;15.75;12.25;;;;;19.15;54.92;99807.38;5039185;28;45252;-52
2022/12/09 09:53:10;;;;;;;;;13.50;12.25;;;;;19.25;55.55;99804.34;5042503;28;46168;-48
2022/12/09 09:55:41;;;;;;;;;16.25;12.25;;;;;19.30;55.52;99803.25;5006611;28;45505;-48
2022/12/09 09:58:25;;;;;;;;;15.25;13.50;;;;;19.38;55.32;99800.28;5020650;28;45572;-48
2022/12/09 10:01:02;;;;;;;;;14.75;13.25;;;;;19.45;54.97;99801.72;5053782;28;45317;-50
2022/12/09 10:03:52;;;;;;;;;14.00;11.75;;;;;19.52;55.04;99792.59;5023866;28;47076;-47
2022/12/09 10:06:48;;;;;;;;;14.00;13.00;;;;;19.58;55.53;99796.81;5046158;28;45312;-49
2022/12/09 10:09:44;;;;;;;;;15.75;12.75;;;;;19.62;55.17;99793.09;5044184;28;45439;-50
2022/12/09 10:12:29;;;;;;;;;11.00;10.50;;;;;19.67;55.26;99785.84;5038982;28;45438;-52
2022/12/09 10:15:07;;;;;;;;;13.25;12.00;;;;;19.71;55.16;99782.97;5021387;28;46186;-47
2022/12/09 10:17:33;;;;;;;;;17.00;12.25;;;;;19.74;55.40;99782.84;5043006;28;45518;-51
2022/12/09 10:20:10;;;;;;;;;12.75;12.75;;;;;19.77;55.34;99785.34;5041163;28;45336;-48
2022/12/09 10:22:48;;;;;;;;;17.25;13.50;;;;;19.82;55.27;99779.00;5026856;28;45499;-47
2022/12/09 10:25:25;;;;;;;;;14.50;11.50;;;;;19.86;54.92;99778.78;5026267;28;46146;-50
2022/12/09 10:28:16;;;;;;;;;12.00;12.00;;;;;19.90;54.76;99772.44;5044438;28;46281;-51
2022/12/09 10:30:41;;;;;;;;;16.25;12.75;;;;;19.93;54.93;99774.94;5044355;28;45282;-50
2022/12/09 10:33:10;;;;;;;;;7.50;7.00;;;;;19.96;54.92;99773.94;4998492;28;45541;-51
2022/12/09 10:35:36;;;;;;;;;11.50;10.75;;;;;19.98;55.39;99767.69;5007712;28;47648;-52
2022/12/09 10:38:12;;;;;;;;;12.25;11.75;;;;;20.00;55.14;99768.47;5021057;28;45687;-47
2022/12/09 10:43:33;;;;;;;;;12.25;11.00;;;;;20.02;54.78;99768.38;5054530;28;45389;-49
2022/12/09 10:44:19;;;;;;;;;12.25;10.75;;;;;20.05;55.17;99752.34;5042010;28;46480;-49
2022/12/09 10:46:44;;;;;;;;;12.50;12.00;;;;;20.08;55.08;99756.66;5023882;28;45504;-50
2022/12/09 10:49:17;;;;;;;;;14.50;12.25;;;;;20.10;54.92;99745.06;5033135;28;45240;-51
2022/12/09 10:51:48;;;;;;;;;13.25;11.50;;;;;20.13;55.28;99746.69;5025010;28;45277;-47
2022/12/09 10:54:35;;;;;;;;;11.25;10.50;;;;;20.15;54.67;99756.28;5017463;28;45498;-49
2022/12/09 10:57:03;;;;;;;;;13.25;12.00;;;;;20.16;55.00;99750.09;5055078;28;45415;-49
2022/12/09 10:59:28;;;;;;;;;9.25;9.25;;;;;20.17;54.75;99749.16;5044831;28;45429;-48
2022/12/09 11:01:58;;;;;;;;;11.25;10.25;;;;;20.21;55.27;99750.72;5042079;28;45217;-52
2022/12/09 11:04:24;;;;;;;;;12.75;12.00;;;;;20.23;55.18;99751.50;5041622;28;45498;-50
2022/12/09 11:06:50;;;;;;;;;13.00;11.25;;;;;20.26;55.06;99750.50;5041701;28;47445;-52
2022/12/09 11:09:23;;;;;;;;;14.75;13.25;;;;;20.27;55.30;99739.84;5025767;28;45386;-50
2022/12/09 11:11:49;;;;;;;;;16.50;12.50;;;;;20.28;55.36;99746.00;5025302;28;45392;-51
2022/12/09 11:14:30;;;;;;;;;13.50;11.50;;;;;20.28;55.13;99743.34;5027321;28;45368;-52
2022/12/09 11:17:39;;;;;;;;;13.00;12.75;;;;;20.27;55.52;99731.91;5033934;28;47372;-51
2022/12/09 11:20:04;;;;;;;;;12.00;11.00;;;;;20.27;55.23;99736.34;5040880;28;45277;-51
2022/12/09 11:23:14;;;;;;;;;12.50;11.00;;;;;20.30;54.99;99736.19;5041566;28;45259;-49